Arverne, New York
Current Conditions -  °F | °C
As of 2:51 AM on Saturday 20 Dec 2014 (Local Time) from KJFK Reporting Station
Overcast Overcast  
Wind Chill: 22°   Ceiling: 2800
Heat Index: 31°   Visibility: 10mi
Dew Point: 19°   Wind: 12mph
Humidity: 61%   Direction: 10°N
Pressure: 30.22"   Gusts: NA
Location:  40.59°N, 73.8°W
Report Text: KJFK 200751Z 01010KT 10SM OVC028 M01/M07 A3022 RMK AO2 SLP232 T10061072 $
Loading
Personal Weather Stations






























Interactive Weather Map New forecast layout! Learn more

10-Day Weather Forecast

Advertisements
Track Severe Weather on mobile